Time;durP1;ratioP1;P1;durP2;ratioP2;P2;SDS_P1;SDS_P2;PMS_P1;PMS_P2;Temp;Humidity;BMP_temperature;BMP_pressure;BME280_temperature;BME280_humidity;BME280_pressure;Samples;Min_cycle;Max_cycle;Signal;HPM_P1;HPM_P2
2023/03/09 00:00:57;;;;;;;11.40;9.70;;;;;;;21.11;26.69;94432.72;6140839;28;110064;-60
2023/03/09 00:04:02;;;;;;;10.03;9.03;;;;;;;21.06;26.54;94423.03;6140172;28;111013;-60
2023/03/09 00:07:05;;;;;;;9.63;8.30;;;;;;;21.09;26.99;94418.97;6138384;28;109601;-59
2023/03/09 00:10:11;;;;;;;9.37;8.57;;;;;;;21.07;26.61;94413.19;6128885;28;109895;-60
2023/03/09 00:13:14;;;;;;;9.50;8.60;;;;;;;21.07;27.02;94415.84;6139292;28;109140;-59
2023/03/09 00:16:19;;;;;;;10.20;8.90;;;;;;;20.99;26.79;94409.38;6139614;28;110611;-60
2023/03/09 00:19:26;;;;;;;8.30;7.57;;;;;;;21.05;26.89;94415.38;6136434;28;109342;-60
2023/03/09 00:22:29;;;;;;;9.00;8.17;;;;;;;20.92;27.03;94411.75;6132896;28;110135;-59
2023/03/09 00:25:33;;;;;;;8.10;7.30;;;;;;;20.91;26.80;94405.66;6137394;28;110311;-60
2023/03/09 00:28:37;;;;;;;8.10;7.27;;;;;;;20.88;26.71;94390.31;6139326;28;110153;-60
2023/03/09 00:31:40;;;;;;;8.20;7.50;;;;;;;21.02;26.87;94408.00;6127855;28;110081;-60
2023/03/09 00:34:45;;;;;;;8.77;7.93;;;;;;;21.03;26.43;94406.91;6143885;28;109913;-60
2023/03/09 00:37:48;;;;;;;8.97;8.17;;;;;;;21.03;26.69;94406.91;6138286;28;109101;-59
2023/03/09 00:40:51;;;;;;;7.43;6.80;;;;;;;21.09;26.71;94406.44;6153356;28;109046;-61
2023/03/09 00:43:54;;;;;;;8.63;7.83;;;;;;;21.09;26.97;94398.47;6152197;28;110006;-60
2023/03/09 00:46:57;;;;;;;7.53;6.80;;;;;;;21.09;26.63;94390.47;6142800;28;109270;-60
2023/03/09 00:50:02;;;;;;;7.27;6.67;;;;;;;21.08;26.80;94385.47;6139807;28;110204;-60
2023/03/09 00:53:06;;;;;;;8.07;7.37;;;;;;;21.07;26.72;94376.72;6146500;28;109056;-61
2023/03/09 00:56:18;;;;;;;8.03;7.33;;;;;;;21.08;26.91;94382.81;6132538;28;109275;-59
2023/03/09 00:59:21;;;;;;;7.67;7.00;;;;;;;21.07;26.90;94367.97;6139552;28;108992;-60
2023/03/09 01:02:25;;;;;;;7.57;6.77;;;;;;;21.02;26.82;94362.78;6143184;28;110288;-61
2023/03/09 01:05:30;;;;;;;8.20;6.77;;;;;;;20.97;26.53;94354.94;6131652;28;109055;-62
2023/03/09 01:08:34;;;;;;;7.43;6.83;;;;;;;21.06;26.74;94375.16;6137420;28;109318;-62
2023/03/09 01:11:37;;;;;;;7.17;6.57;;;;;;;21.00;26.80;94367.59;6138895;28;109119;-62
2023/03/09 01:14:41;;;;;;;7.80;7.10;;;;;;;21.06;26.78;94369.84;6139929;28;109149;-61
2023/03/09 01:17:44;;;;;;;6.83;6.23;;;;;;;21.05;26.97;94367.50;6129865;28;109330;-61
2023/03/09 01:20:48;;;;;;;7.23;6.53;;;;;;;21.05;26.94;94359.50;6146748;28;109362;-62
2023/03/09 01:23:52;;;;;;;7.20;6.60;;;;;;;21.04;26.54;94361.38;6151003;28;109131;-61
2023/03/09 01:26:55;;;;;;;6.87;6.13;;;;;;;20.97;26.73;94354.94;6138581;28;110569;-61
2023/03/09 01:29:58;;;;;;;6.13;5.63;;;;;;;21.03;26.69;94351.03;6131842;28;110430;-61
2023/03/09 01:33:01;;;;;;;7.30;6.70;;;;;;;21.04;26.99;94341.97;6143965;28;109305;-61
2023/03/09 01:36:08;;;;;;;6.57;6.07;;;;;;;21.03;26.83;94348.38;6147619;28;109424;-61
2023/03/09 01:39:12;;;;;;;9.17;7.17;;;;;;;20.87;26.88;94316.94;6132570;28;110115;-61
2023/03/09 01:42:15;;;;;;;6.90;6.30;;;;;;;21.02;27.22;94341.50;6132100;28;109327;-61
2023/03/09 01:45:55;;;;;;;6.90;6.30;;;;;;;20.99;26.80;94334.91;6138100;28;109184;-61
2023/03/09 01:49:06;;;;;;;7.40;6.70;;;;;;;20.99;27.04;94316.28;6137808;28;109300;-62
2023/03/09 01:52:17;;;;;;;7.37;6.67;;;;;;;20.99;26.78;94326.16;6127804;28;109127;-61
2023/03/09 01:55:25;;;;;;;6.50;5.90;;;;;;;20.99;26.98;94331.47;6137248;28;108953;-61
2023/03/09 01:58:30;;;;;;;6.53;5.93;;;;;;;20.86;26.63;94299.44;6146718;28;109820;-62
2023/03/09 02:01:36;;;;;;;6.57;5.73;;;;;;;20.90;26.94;94304.91;6138827;28;109230;-61
2023/03/09 02:04:46;;;;;;;6.33;5.73;;;;;;;20.96;26.71;94324.13;6138652;28;110889;-61
2023/03/09 02:07:52;;;;;;;6.43;5.77;;;;;;;20.93;26.75;94323.66;6138796;28;109454;-62
2023/03/09 02:10:57;;;;;;;6.10;5.50;;;;;;;20.97;26.38;94325.69;6133053;28;109437;-62
2023/03/09 02:14:01;;;;;;;6.27;5.63;;;;;;;20.96;26.58;94321.47;6128013;28;110255;-61
2023/03/09 02:17:04;;;;;;;7.13;6.43;;;;;;;20.96;26.74;94334.75;6152437;28;110234;-61
2023/03/09 02:20:12;;;;;;;5.70;5.17;;;;;;;;;;6137613;28;109160;-61
2023/03/09 02:23:33;;;;;;;6.50;5.40;;;;;;;20.93;26.30;94338.84;6150698;28;110041;-61
2023/03/09 02:26:41;;;;;;;8.70;5.53;;;;;;;20.92;26.69;94332.75;6132089;28;109052;-61
2023/03/09 02:29:46;;;;;;;5.57;5.07;;;;;;;20.92;26.43;94340.72;6145673;28;110296;-62
2023/03/09 02:32:49;;;;;;;6.30;5.77;;;;;;;20.85;26.61;94327.13;6149096;28;110323;-61
2023/03/09 02:35:53;;;;;;;6.03;5.43;;;;;;;20.90;26.72;94345.56;6135711;28;109142;-61
2023/03/09 02:39:03;;;;;;;6.23;5.23;;;;;;;20.88;26.65;94350.44;6130964;28;109316;-61
2023/03/09 02:42:07;;;;;;;7.03;5.40;;;;;;;20.88;26.82;94347.78;6136327;28;109870;-61
2023/03/09 02:45:15;;;;;;;5.30;4.80;;;;;;;20.89;26.55;94348.56;6148017;28;109224;-61
2023/03/09 02:48:19;;;;;;;5.40;4.90;;;;;;;20.84;26.91;94338.09;6125809;28;108886;-62
2023/03/09 02:51:22;;;;;;;5.40;4.90;;;;;;;20.87;26.54;94351.53;6153328;28;110236;-62
2023/03/09 02:54:25;;;;;;;5.23;4.83;;;;;;;20.85;26.84;94343.09;6140833;28;109035;-61
2023/03/09 02:57:28;;;;;;;6.23;5.23;;;;;;;20.82;26.84;94354.31;6138209;28;110168;-59
2023/03/09 03:00:33;;;;;;;8.00;5.50;;;;;;;20.81;26.63;94347.44;6125067;28;110101;-60
2023/03/09 03:03:36;;;;;;;6.23;5.63;;;;;;;20.78;26.73;94334.00;6152662;28;109329;-59
2023/03/09 03:06:40;;;;;;;6.77;5.80;;;;;;;20.81;26.74;94354.63;6152208;28;109781;-60
2023/03/09 03:09:43;;;;;;;6.37;5.67;;;;;;;20.70;26.56;94340.91;6137626;28;111097;-60
2023/03/09 03:12:46;;;;;;;5.63;5.10;;;;;;;20.84;26.27;94360.13;6128970;28;110145;-60
2023/03/09 03:15:51;;;;;;;5.80;5.30;;;;;;;20.81;26.65;94347.44;6136725;28;109413;-60
2023/03/09 03:18:54;;;;;;;6.50;5.70;;;;;;;20.83;26.71;94365.75;6144148;28;109504;-60
2023/03/09 03:21:57;;;;;;;8.80;5.67;;;;;;;20.83;26.57;94366.53;6128608;28;109362;-60
2023/03/09 03:25:00;;;;;;;8.17;5.80;;;;;;;20.83;26.47;94368.41;6135690;28;109314;-59
2023/03/09 03:28:04;;;;;;;5.23;4.80;;;;;;;20.82;26.66;94356.97;6137814;28;109604;-59
2023/03/09 03:31:08;;;;;;;5.90;5.00;;;;;;;20.77;26.52;94349.19;6136160;28;109102;-59
2023/03/09 03:34:12;;;;;;;5.97;4.90;;;;;;;20.84;27.18;94354.03;6128827;28;109246;-60
2023/03/09 03:37:15;;;;;;;5.57;5.00;;;;;;;20.99;26.88;94369.47;6137863;28;109112;-60
2023/03/09 03:40:19;;;;;;;5.83;5.23;;;;;;;21.08;26.81;94366.84;6143283;28;109401;-60
2023/03/09 03:43:22;;;;;;;5.60;5.13;;;;;;;21.04;26.87;94353.38;6128149;28;109071;-60
2023/03/09 03:46:27;;;;;;;6.40;5.70;;;;;;;21.28;26.94;94354.75;6124677;28;108992;-60
2023/03/09 03:49:30;;;;;;;6.80;5.90;;;;;;;21.26;26.98;94357.75;6155300;28;110380;-60
2023/03/09 03:52:33;;;;;;;7.50;6.90;;;;;;;21.28;27.55;94358.22;6151961;28;110090;-61
2023/03/09 03:55:36;;;;;;;7.03;6.43;;;;;;;21.32;27.11;94377.75;6131702;28;109086;-62
2023/03/09 03:58:40;;;;;;;7.67;6.97;;;;;;;21.30;27.40;94368.53;6136272;28;109259;-60
2023/03/09 04:01:44;;;;;;;8.60;7.73;;;;;;;21.23;27.65;94354.94;6134645;28;109159;-60
2023/03/09 04:04:47;;;;;;;7.90;7.20;;;;;;;21.33;27.89;94360.69;6136236;28;112908;-61
2023/03/09 04:07:51;;;;;;;8.63;7.40;;;;;;;21.26;28.11;94336.47;6141887;28;109425;-62
2023/03/09 04:10:54;;;;;;;7.03;6.43;;;;;;;21.32;28.00;94361.78;6139308;28;110357;-60
2023/03/09 04:13:58;;;;;;;8.50;7.60;;;;;;;21.26;28.68;94351.66;6135641;28;111313;-60
2023/03/09 04:17:02;;;;;;;7.40;6.70;;;;;;;21.30;28.49;94353.34;6137978;28;109369;-60
2023/03/09 04:20:07;;;;;;;129.97;118.93;;;;;;;21.26;30.71;94341.00;6136371;28;109149;-61
2023/03/09 04:23:11;;;;;;;152.37;139.67;;;;;;;21.31;31.61;94351.47;6153804;28;109070;-60
2023/03/09 04:26:14;;;;;;;142.50;131.07;;;;;;;21.24;32.43;94353.84;6143062;28;109096;-60
2023/03/09 04:29:18;;;;;;;39.80;36.47;;;;;;;21.20;30.44;94343.06;6141966;28;110486;-60
2023/03/09 04:32:22;;;;;;;99.07;90.43;;;;;;;21.19;31.59;94322.88;6134057;28;110237;-60
2023/03/09 04:35:26;;;;;;;71.27;65.23;;;;;;;21.25;31.66;94353.53;6162199;28;109166;-60
2023/03/09 04:38:29;;;;;;;70.17;64.10;;;;;;;21.24;32.04;94343.19;6142696;28;109105;-61
2023/03/09 04:41:32;;;;;;;59.87;54.53;;;;;;;21.22;31.03;94338.19;6144347;28;109383;-61
2023/03/09 04:44:35;;;;;;;56.90;51.93;;;;;;;21.19;31.32;94339.63;6143754;28;109255;-61
2023/03/09 04:47:40;;;;;;;55.83;51.03;;;;;;;21.18;30.79;94318.66;6142694;28;109602;-59
2023/03/09 04:50:44;;;;;;;45.77;41.33;;;;;;;20.92;30.03;94306.16;6138557;28;109133;-60
2023/03/09 04:53:48;;;;;;;31.07;28.13;;;;;;;20.84;30.65;94336.22;6126220;28;110054;-58
2023/03/09 04:56:53;;;;;;;34.40;31.33;;;;;;;20.90;30.07;94321.63;6138794;28;110226;-58
2023/03/09 04:59:56;;;;;;;22.03;16.50;;;;;;;20.78;29.49;94332.13;6145032;28;109414;-59
2023/03/09 05:03:00;;;;;;;9.67;8.20;;;;;;;20.46;28.83;94320.09;6145583;28;109407;-60
2023/03/09 05:06:04;;;;;;;10.30;8.57;;;;;;;20.27;29.09;94328.38;6127156;28;110196;-59
2023/03/09 05:09:07;;;;;;;14.10;11.97;;;;;;;20.27;29.11;94315.09;6138124;28;109168;-61
2023/03/09 05:12:10;;;;;;;12.13;9.70;;;;;;;20.52;29.12;94315.41;6138480;28;109524;-59
2023/03/09 05:15:14;;;;;;;13.40;11.63;;;;;;;20.65;29.25;94326.97;6132628;28;110390;-59
2023/03/09 05:18:19;;;;;;;12.00;10.80;;;;;;;20.71;29.05;94325.72;6133587;28;110086;-59
2023/03/09 05:21:22;;;;;;;11.43;9.90;;;;;;;20.76;29.03;94325.56;6139107;28;110206;-59
2023/03/09 05:24:25;;;;;;;11.43;10.23;;;;;;;20.80;28.82;94316.63;6138683;28;109122;-59
2023/03/09 05:27:28;;;;;;;9.80;8.93;;;;;;;20.83;29.01;94316.00;6127449;28;109329;-59
2023/03/09 05:30:32;;;;;;;9.60;8.80;;;;;;;20.85;29.01;94321.03;6134261;28;109325;-60
2023/03/09 05:33:36;;;;;;;9.13;8.23;;;;;;;20.90;28.88;94328.84;6114401;28;109099;-59
2023/03/09 05:36:39;;;;;;;9.20;8.27;;;;;;;20.92;28.90;94339.94;6114625;28;109198;-60
2023/03/09 05:39:43;;;;;;;9.60;8.70;;;;;;;20.92;28.81;94332.75;6103242;28;109246;-59
2023/03/09 05:42:47;;;;;;;9.10;8.20;;;;;;;20.93;28.82;94339.63;6114211;28;109421;-60
2023/03/09 05:45:54;;;;;;;8.13;7.40;;;;;;;;;;6113514;28;111247;-59
2023/03/09 05:48:58;;;;;;;8.47;7.67;;;;;;;;;;6109551;28;109233;-59
2023/03/09 05:52:02;;;;;;;8.20;7.50;;;;;;;20.94;28.99;94337.75;6108949;28;109112;-60
2023/03/09 05:55:05;;;;;;;8.20;7.50;;;;;;;20.91;28.96;94341.81;6114168;28;109710;-59
2023/03/09 05:58:08;;;;;;;7.90;7.20;;;;;;;20.94;28.99;94351.03;6114297;28;110314;-59
2023/03/09 06:01:20;;;;;;;7.63;6.93;;;;;;;20.98;29.15;94362.59;6102743;28;109175;-59
2023/03/09 06:04:24;;;;;;;8.30;7.40;;;;;;;21.00;28.93;94368.38;6114074;28;109486;-59
2023/03/09 06:07:29;;;;;;;7.73;6.93;;;;;;;20.93;29.14;94352.91;6114440;28;109456;-59
2023/03/09 06:10:32;;;;;;;7.43;6.53;;;;;;;21.01;29.08;94377.19;6114187;28;110402;-60
2023/03/09 06:13:36;;;;;;;7.77;7.07;;;;;;;21.00;28.98;94381.69;6103429;28;110095;-61
2023/03/09 06:16:39;;;;;;;6.90;6.20;;;;;;;21.01;28.99;94367.31;6113223;28;109155;-60
2023/03/09 06:19:45;;;;;;;6.77;6.17;;;;;;;21.02;29.06;94379.53;6113923;28;110659;-59
2023/03/09 06:22:48;;;;;;;6.77;6.17;;;;;;;21.02;28.66;94379.53;6112807;28;109021;-59
2023/03/09 06:25:52;;;;;;;6.47;5.87;;;;;;;21.08;29.05;94378.28;6105414;28;111419;-59
2023/03/09 06:28:55;;;;;;;7.10;6.40;;;;;;;21.15;28.73;94375.13;6114028;28;108982;-59
2023/03/09 06:31:59;;;;;;;7.00;6.37;;;;;;;21.24;29.15;94375.91;6113392;28;109316;-59
2023/03/09 06:35:04;;;;;;;6.37;5.77;;;;;;;21.29;29.03;94372.28;6102591;28;108983;-59
2023/03/09 06:38:07;;;;;;;6.93;6.33;;;;;;;21.30;28.97;94374.63;6112921;28;109047;-59
2023/03/09 06:41:12;;;;;;;8.77;6.50;;;;;;;21.32;28.82;94372.44;6112670;28;109248;-59
2023/03/09 06:44:15;;;;;;;7.00;6.37;;;;;;;21.33;29.04;94379.31;6113142;28;109150;-60
2023/03/09 06:47:18;;;;;;;8.27;6.67;;;;;;;21.33;29.09;94371.34;6100857;28;109355;-60
2023/03/09 06:50:23;;;;;;;7.13;6.50;;;;;;;21.33;29.09;94368.66;6112932;28;109298;-60
2023/03/09 06:53:26;;;;;;;8.93;6.67;;;;;;;21.35;29.11;94371.81;6112934;28;109374;-60
2023/03/09 06:56:29;;;;;;;6.43;5.83;;;;;;;21.22;28.99;94332.88;6112858;28;109032;-60
2023/03/09 06:59:32;;;;;;;6.00;5.50;;;;;;;21.37;29.64;94358.19;6102352;28;109023;-59
2023/03/09 07:02:37;;;;;;;6.80;6.00;;;;;;;21.40;29.02;94350.34;6112593;28;108893;-59
2023/03/09 07:05:41;;;;;;;6.80;6.20;;;;;;;21.38;29.10;94339.25;6113431;28;110356;-60
2023/03/09 07:08:44;;;;;;;7.30;6.60;;;;;;;21.44;29.15;94343.28;6107665;28;110195;-60
2023/03/09 07:11:48;;;;;;;6.40;5.80;;;;;;;21.50;29.06;94346.56;6108027;28;109263;-60
2023/03/09 07:14:51;;;;;;;5.83;5.30;;;;;;;21.55;28.77;94348.28;6112795;28;109346;-60
2023/03/09 07:17:54;;;;;;;7.40;6.00;;;;;;;21.58;29.06;94352.97;6111994;28;109613;-60
2023/03/09 07:21:01;;;;;;;6.43;5.80;;;;;;;21.58;28.79;94352.97;6101426;28;109122;-60
2023/03/09 07:24:05;;;;;;;6.30;5.70;;;;;;;21.49;28.69;94334.34;6112888;28;110550;-60
2023/03/09 07:27:08;;;;;;;5.50;5.00;;;;;;;21.56;28.77;94344.50;6112748;28;110105;-60
2023/03/09 07:30:13;;;;;;;5.30;4.90;;;;;;;21.66;28.86;94347.59;6112809;28;111504;-60
2023/03/09 07:33:16;;;;;;;5.43;4.83;;;;;;;21.70;28.63;94353.84;6102017;28;109969;-60
2023/03/09 07:36:21;;;;;;;6.80;5.60;;;;;;;21.72;28.94;94350.88;6112350;28;109227;-60
2023/03/09 07:39:24;;;;;;;5.63;5.13;;;;;;;21.73;28.41;94355.88;6112710;28;109306;-60
2023/03/09 07:42:27;;;;;;;5.77;5.20;;;;;;;21.73;28.67;94355.09;6108511;28;110512;-60
2023/03/09 07:45:41;;;;;;;5.17;4.73;;;;;;;21.76;28.87;94354.44;6107076;28;110531;-60
2023/03/09 07:48:45;;;;;;;5.77;5.27;;;;;;;21.72;28.83;94348.22;6111810;28;109863;-60
2023/03/09 07:51:50;;;;;;;5.87;5.27;;;;;;;21.73;28.76;94353.22;6112077;28;109040;-59
2023/03/09 07:54:53;;;;;;;5.13;4.73;;;;;;;21.77;28.87;94356.00;6103745;28;109900;-59
2023/03/09 07:57:56;;;;;;;5.00;4.60;;;;;;;21.83;28.55;94357.41;6116022;28;109532;-59
2023/03/09 08:01:00;;;;;;;4.97;4.57;;;;;;;21.87;28.54;94357.56;6115902;28;110251;-59
2023/03/09 08:04:03;;;;;;;6.37;5.73;;;;;;;21.88;28.78;94362.59;6116279;28;110335;-59
2023/03/09 08:07:08;;;;;;;8.07;7.37;;;;;;;21.83;29.00;94353.97;6105524;28;109060;-59
2023/03/09 08:10:13;;;;;;;6.43;5.63;;;;;;;21.70;29.09;94327.22;6116430;28;109152;-59
2023/03/09 08:13:16;;;;;;;6.43;5.83;;;;;;;21.86;29.39;94358.69;6115913;28;109116;-58
2023/03/09 08:16:20;;;;;;;6.67;6.17;;;;;;;21.91;29.43;94364.59;6116124;28;109432;-59
2023/03/09 08:19:23;;;;;;;5.70;5.13;;;;;;;21.95;29.04;94357.53;6106008;28;111281;-59
2023/03/09 08:22:28;;;;;;;6.77;5.50;;;;;;;21.91;28.93;94358.50;6115812;28;110049;-59
2023/03/09 08:25:31;;;;;;;5.60;5.10;;;;;;;22.00;29.21;94369.88;6115458;28;109058;-59
2023/03/09 08:28:34;;;;;;;6.17;5.63;;;;;;;21.98;29.23;94372.06;6106195;28;110413;-59
2023/03/09 08:31:38;;;;;;;5.60;5.10;;;;;;;21.97;29.00;94357.19;6114858;28;109159;-59
2023/03/09 08:34:41;;;;;;;8.93;5.80;;;;;;;21.95;29.15;94354.06;6115723;28;109079;-59
2023/03/09 08:37:46;;;;;;;5.97;5.47;;;;;;;21.97;29.26;94357.19;6115594;28;109413;-60
2023/03/09 08:40:49;;;;;;;5.60;5.10;;;;;;;21.96;29.41;94353.75;6104836;28;110692;-59
2023/03/09 08:43:54;;;;;;;6.33;5.37;;;;;;;21.98;29.16;94350.78;6115390;28;109503;-59
2023/03/09 08:46:57;;;;;;;6.23;5.63;;;;;;;21.90;29.27;94338.28;6115792;28;110872;-59
2023/03/09 08:50:01;;;;;;;5.90;5.40;;;;;;;21.90;29.35;94336.41;6114515;28;110306;-59
2023/03/09 08:53:05;;;;;;;5.40;4.90;;;;;;;21.92;28.95;94352.84;6104229;28;109246;-59
2023/03/09 08:56:10;;;;;;;5.60;5.10;;;;;;;21.91;29.02;94345.19;6115050;28;109496;-59
2023/03/09 08:59:13;;;;;;;5.70;5.20;;;;;;;21.89;29.36;94337.50;6115003;28;109253;-59
2023/03/09 09:02:16;;;;;;;5.50;5.00;;;;;;;21.77;29.44;94313.41;6109443;28;110376;-59
2023/03/09 09:05:21;;;;;;;4.73;4.33;;;;;;;21.84;29.39;94324.34;6109176;28;109197;-59
2023/03/09 09:08:27;;;;;;;5.37;4.90;;;;;;;21.84;29.52;94319.03;6114736;28;109831;-59
2023/03/09 09:11:32;;;;;;;5.73;5.30;;;;;;;21.81;29.12;94317.75;6114891;28;109088;-59
2023/03/09 09:14:37;;;;;;;5.83;5.33;;;;;;;21.78;29.26;94314.97;6104848;28;110676;-59
2023/03/09 09:17:41;;;;;;;5.30;4.80;;;;;;;21.77;29.52;94316.06;6114718;28;109073;-59
2023/03/09 09:20:44;;;;;;;4.87;4.47;;;;;;;21.72;29.30;94294.94;6113826;28;110114;-59
2023/03/09 09:23:49;;;;;;;5.37;4.87;;;;;;;21.71;29.67;94288.06;6114366;28;109232;-61
2023/03/09 09:26:55;;;;;;;5.20;4.70;;;;;;;21.70;29.61;94286.50;6103845;28;109780;-59
2023/03/09 09:29:58;;;;;;;5.50;5.00;;;;;;;21.71;29.59;94290.72;6114521;28;108999;-58
2023/03/09 09:33:01;;;;;;;5.77;5.10;;;;;;;21.68;29.43;94294.03;6114577;28;109401;-58
2023/03/09 09:36:08;;;;;;;5.27;4.87;;;;;;;21.73;29.83;94289.31;6110516;28;108860;-58
2023/03/09 09:39:13;;;;;;;4.90;4.40;;;;;;;21.65;29.49;94257.38;6108392;28;109050;-59
2023/03/09 09:42:26;;;;;;;5.13;4.63;;;;;;;21.76;29.45;94275.34;6114879;28;109520;-59
2023/03/09 09:45:33;;;;;;;5.43;4.73;;;;;;;21.80;29.63;94275.47;6114247;28;109679;-59
2023/03/09 09:48:40;;;;;;;5.27;4.77;;;;;;;21.83;29.50;94269.53;6103658;28;110142;-59
2023/03/09 09:51:51;;;;;;;5.20;4.70;;;;;;;21.82;29.53;94262.63;6113578;28;109428;-59
2023/03/09 09:55:03;;;;;;;4.77;4.27;;;;;;;21.88;29.62;94266.69;6114251;28;109260;-59
2023/03/09 09:58:19;;;;;;;4.90;4.50;;;;;;;21.94;29.13;94265.38;6114309;28;109046;-59
2023/03/09 10:01:28;;;;;;;5.27;4.80;;;;;;;21.99;29.13;94259.88;6102670;28;109580;-59
2023/03/09 10:04:47;;;;;;;4.70;4.30;;;;;;;22.04;29.65;94259.69;6114135;28;109389;-59
2023/03/09 10:07:51;;;;;;;5.13;4.63;;;;;;;22.09;29.31;94245.38;6114193;28;110406;-59
2023/03/09 10:11:00;;;;;;;4.57;4.17;;;;;;;22.13;29.01;94245.50;6103736;28;110237;-59
2023/03/09 10:14:12;;;;;;;5.60;5.10;;;;;;;22.16;29.42;94231.53;6113820;28;109013;-58
2023/03/09 10:17:18;;;;;;;5.83;5.27;;;;;;;22.17;29.45;94231.22;6113273;28;110069;-59
2023/03/09 10:20:28;;;;;;;6.10;5.50;;;;;;;22.19;29.12;94228.25;6113742;28;109084;-59
2023/03/09 10:23:34;;;;;;;5.77;5.23;;;;;;;22.22;29.31;94222.25;6102894;28;110755;-59
2023/03/09 10:26:44;;;;;;;5.63;5.13;;;;;;;22.21;29.28;94205.50;6113632;28;109246;-59
2023/03/09 10:29:55;;;;;;;5.90;5.33;;;;;;;22.24;29.18;94206.72;6113847;28;109727;-58
2023/03/09 10:33:17;;;;;;;5.10;4.60;;;;;;;22.24;28.93;94191.50;6108190;28;109127;-60
2023/03/09 10:36:27;;;;;;;5.40;4.90;;;;;;;22.22;29.42;94187.63;6107665;28;109241;-60
2023/03/09 10:39:35;;;;;;;6.00;5.40;;;;;;;22.26;29.48;94193.84;6113303;28;109059;-60
2023/03/09 10:42:40;;;;;;;5.43;4.93;;;;;;;22.28;29.26;94186.28;6113698;28;110198;-60
2023/03/09 10:45:43;;;;;;;5.57;5.07;;;;;;;22.24;28.97;94172.84;6102497;28;109364;-60
2023/03/09 10:48:47;;;;;;;6.60;5.93;;;;;;;22.27;29.54;94171.41;6113310;28;109007;-60
2023/03/09 10:52:02;;;;;;;5.97;5.37;;;;;;;22.23;29.26;94155.31;6113213;28;109271;-60
2023/03/09 10:55:36;;;;;;;5.93;5.40;;;;;;;22.22;29.27;94159.06;6112256;28;110023;-60
2023/03/09 10:58:45;;;;;;;5.93;5.43;;;;;;;22.23;29.64;94149.97;6106871;28;109216;-59
2023/03/09 11:01:51;;;;;;;6.00;5.43;;;;;;;22.21;29.74;94141.53;6112461;28;110198;-59
2023/03/09 11:04:54;;;;;;;6.23;5.53;;;;;;;22.24;29.25;94124.09;6113136;28;109490;-59
2023/03/09 11:08:02;;;;;;;5.93;5.07;;;;;;;22.23;29.40;94127.88;6101947;28;110809;-60
2023/03/09 11:11:09;;;;;;;6.80;6.13;;;;;;;22.23;29.25;94125.22;6112947;28;109092;-59
2023/03/09 11:14:25;;;;;;;6.30;5.70;;;;;;;22.22;29.61;94121.00;6112857;28;109578;-59
2023/03/09 11:17:33;;;;;;;6.33;5.73;;;;;;;22.17;29.61;94118.50;6112903;28;109223;-59
2023/03/09 11:20:38;;;;;;;5.73;5.23;;;;;;;22.14;29.83;94113.84;6101517;28;110172;-60
2023/03/09 11:23:46;;;;;;;7.07;6.33;;;;;;;22.14;29.52;94098.63;6112305;28;109225;-60
2023/03/09 11:26:54;;;;;;;5.63;5.10;;;;;;;22.12;29.88;94092.84;6111678;28;109360;-59
2023/03/09 11:30:06;;;;;;;6.47;5.47;;;;;;;22.12;29.98;94090.19;6108049;28;111698;-60
2023/03/09 11:33:13;;;;;;;7.17;6.47;;;;;;;22.13;29.90;94091.75;6111778;28;109123;-59
2023/03/09 11:36:20;;;;;;;6.30;5.70;;;;;;;22.13;29.89;94085.66;6112413;28;109251;-60
2023/03/09 11:39:34;;;;;;;6.40;5.73;;;;;;;22.10;29.91;94082.53;6112682;28;109090;-59
2023/03/09 11:42:42;;;;;;;6.63;5.93;;;;;;;22.10;29.91;94071.88;6101442;28;109082;-59
2023/03/09 11:45:48;;;;;;;7.20;6.40;;;;;;;22.08;29.67;94082.09;6112455;28;108992;-60
2023/03/09 11:48:54;;;;;;;7.10;6.10;;;;;;;22.06;29.89;94073.66;6112737;28;109213;-59
2023/03/09 11:51:59;;;;;;;5.40;4.90;;;;;;;21.99;30.06;94045.97;6112316;28;109201;-59
2023/03/09 11:55:12;;;;;;;6.73;6.03;;;;;;;22.02;29.97;94038.13;6101295;28;109981;-60
2023/03/09 11:58:19;;;;;;;5.90;5.40;;;;;;;22.00;30.18;94034.97;6111579;28;110315;-59
2023/03/09 12:01:30;;;;;;;6.80;5.80;;;;;;;22.00;29.77;94042.19;6111134;28;109321;-59
2023/03/09 12:04:33;;;;;;;8.10;6.70;;;;;;;21.96;29.86;94042.09;6101660;28;109654;-58
2023/03/09 12:07:42;;;;;;;6.40;5.73;;;;;;;21.97;30.32;94017.00;6111789;28;110271;-59
2023/03/09 12:10:50;;;;;;;5.53;5.03;;;;;;;21.98;30.07;94018.56;6111943;28;109088;-60
2023/03/09 12:13:58;;;;;;;7.60;5.30;;;;;;;21.98;30.29;94015.13;6112302;28;110023;-59
2023/03/09 12:17:12;;;;;;;7.00;5.70;;;;;;;21.97;30.12;94014.34;6101860;28;110392;-59
2023/03/09 12:20:26;;;;;;;6.10;5.50;;;;;;;21.98;30.32;94009.78;6112573;28;109107;-59
2023/03/09 12:23:51;;;;;;;6.43;5.50;;;;;;;21.97;30.17;94006.34;6112399;28;109062;-59
2023/03/09 12:27:00;;;;;;;5.80;5.20;;;;;;;21.97;30.24;94003.69;6106503;28;109031;-59
2023/03/09 12:30:20;;;;;;;5.30;4.80;;;;;;;21.90;30.24;93986.69;6108596;28;109234;-60
2023/03/09 12:33:56;;;;;;;6.90;6.30;;;;;;;21.90;29.95;93992.81;6112601;28;108955;-59
2023/03/09 12:37:32;;;;;;;6.90;5.50;;;;;;;21.94;30.07;93988.38;6111124;28;109165;-59
2023/03/09 12:40:39;;;;;;;5.80;5.30;;;;;;;21.96;30.42;93993.34;6103850;28;109149;-59
2023/03/09 12:43:48;;;;;;;5.73;5.10;;;;;;;21.83;30.08;93976.56;6115831;28;110346;-60
2023/03/09 12:47:00;;;;;;;7.00;6.30;;;;;;;21.92;30.22;93982.59;6115282;28;109258;-60
2023/03/09 12:50:05;;;;;;;5.70;5.10;;;;;;;21.91;30.15;93989.03;6104795;28;109519;-60
2023/03/09 12:53:17;;;;;;;5.90;5.30;;;;;;;21.90;30.37;93986.69;6115653;28;109106;-63
2023/03/09 12:56:22;;;;;;;5.37;4.87;;;;;;;21.88;30.08;93973.72;6115704;28;110130;-60
2023/03/09 12:59:27;;;;;;;5.80;5.20;;;;;;;21.87;30.03;93980.16;6115601;28;108769;-59
2023/03/09 13:02:34;;;;;;;5.60;5.10;;;;;;;21.84;30.38;93969.34;6103193;28;109108;-60
2023/03/09 13:05:42;;;;;;;5.67;5.13;;;;;;;21.83;30.15;93973.91;6115390;28;109134;-59
2023/03/09 13:08:52;;;;;;;6.23;5.40;;;;;;;21.81;30.56;93976.09;6115215;28;109357;-59
2023/03/09 13:12:04;;;;;;;5.73;5.23;;;;;;;21.78;30.17;93958.13;6110361;28;110187;-59
2023/03/09 13:15:21;;;;;;;7.57;5.07;;;;;;;21.80;30.28;93962.00;6108895;28;109114;-59
2023/03/09 13:18:27;;;;;;;6.43;5.03;;;;;;;21.79;30.35;93946.34;6114726;28;110498;-59
2023/03/09 13:21:39;;;;;;;5.47;5.07;;;;;;;21.80;30.25;93950.56;6115073;28;109200;-60
2023/03/09 13:24:43;;;;;;;6.40;5.70;;;;;;;21.72;30.64;93932.81;6104193;28;109272;-59
2023/03/09 13:27:49;;;;;;;5.70;4.67;;;;;;;21.78;30.61;93948.25;6114719;28;109309;-58
2023/03/09 13:30:55;;;;;;;5.07;4.67;;;;;;;21.79;30.36;93938.38;6114556;28;109051;-59
2023/03/09 13:33:59;;;;;;;4.83;4.43;;;;;;;21.83;31.00;93935.84;6113820;28;109097;-60
2023/03/09 13:37:06;;;;;;;5.50;4.90;;;;;;;21.95;30.98;93962.50;6103335;28;109300;-60
2023/03/09 13:40:26;;;;;;;5.77;5.20;;;;;;;21.99;31.66;93953.50;6114514;28;109627;-61
2023/03/09 13:43:33;;;;;;;5.77;5.17;;;;;;;21.98;31.79;93948.53;6114541;28;109113;-61
2023/03/09 13:46:37;;;;;;;5.80;5.00;;;;;;;22.00;31.42;93944.41;6105900;28;110421;-59
2023/03/09 13:49:40;;;;;;;5.23;4.73;;;;;;;22.00;31.67;93944.41;6113962;28;109117;-60
2023/03/09 13:52:59;;;;;;;5.93;5.33;;;;;;;22.00;31.50;93948.97;6114222;28;109242;-60
2023/03/09 13:56:04;;;;;;;4.93;4.43;;;;;;;21.93;31.19;93936.19;6114458;28;110492;-59
2023/03/09 13:59:16;;;;;;;5.40;4.90;;;;;;;21.88;31.25;93933.00;6103001;28;108780;-60
2023/03/09 14:02:20;;;;;;;5.67;5.17;;;;;;;21.82;31.29;93935.06;6113238;28;109240;-59
2023/03/09 14:05:24;;;;;;;5.30;4.80;;;;;;;21.77;31.47;93929.94;6113691;28;110277;-59
2023/03/09 14:08:51;;;;;;;5.03;4.60;;;;;;;21.82;31.27;93945.72;6108850;28;111392;-59
2023/03/09 14:11:54;;;;;;;6.40;5.50;;;;;;;21.82;31.07;93940.41;6107835;28;109044;-59
2023/03/09 14:15:01;;;;;;;5.77;5.27;;;;;;;21.81;31.24;93958.22;6113745;28;109092;-59
2023/03/09 14:18:05;;;;;;;5.47;4.97;;;;;;;21.81;31.01;93957.44;6114170;28;110234;-59
2023/03/09 14:21:20;;;;;;;4.83;4.33;;;;;;;21.80;31.19;93966.56;6104349;28;111232;-59
2023/03/09 14:24:26;;;;;;;5.10;4.60;;;;;;;21.79;31.23;93962.34;6113727;28;109663;-60